createdAt,value
2022-12-24T00:01:24.962Z,94.50
2022-12-24T00:03:54.779Z,92.73
2022-12-24T00:06:25.275Z,94.57
2022-12-24T00:08:53.904Z,90.37
2022-12-24T00:11:22.614Z,91.77
2022-12-24T00:13:51.391Z,90.60
2022-12-24T00:16:19.929Z,90.67
2022-12-24T00:18:48.395Z,88.87
2022-12-24T00:21:18.230Z,89.27
2022-12-24T00:23:46.798Z,89.37
2022-12-24T00:26:15.433Z,91.63
2022-12-24T00:28:44.084Z,92.77
2022-12-24T00:31:13.749Z,94.10
2022-12-24T00:33:42.220Z,95.83
2022-12-24T00:36:10.813Z,92.27
2022-12-24T00:38:40.554Z,92.13
2022-12-24T00:41:25.087Z,92.47
2022-12-24T00:43:54.485Z,92.90
2022-12-24T00:46:23.515Z,89.20
2022-12-24T00:48:52.241Z,91.00
2022-12-24T00:51:21.073Z,91.63
2022-12-24T00:53:51.054Z,89.83
2022-12-24T00:56:19.795Z,92.03
2022-12-24T00:58:48.415Z,92.27
2022-12-24T01:01:17.677Z,89.20
2022-12-24T01:03:46.177Z,89.23
2022-12-24T01:06:14.865Z,88.13
2022-12-24T01:08:43.634Z,88.27
2022-12-24T01:11:13.874Z,90.40
2022-12-24T01:13:42.271Z,92.20
2022-12-24T01:16:15.894Z,95.57
2022-12-24T01:18:44.361Z,94.50
2022-12-24T01:21:12.926Z,98.37
2022-12-24T01:23:41.375Z,96.57
2022-12-24T01:26:09.782Z,93.23
2022-12-24T01:28:40.003Z,94.77
2022-12-24T01:31:12.179Z,96.10
2022-12-24T01:33:40.809Z,95.23
2022-12-24T01:36:09.375Z,91.30
2022-12-24T01:38:37.801Z,95.70
2022-12-24T01:41:32.267Z,95.80
2022-12-24T01:44:15.561Z,96.13
2022-12-24T01:46:45.675Z,93.97
2022-12-24T01:49:15.703Z,98.27
2022-12-24T01:51:46.361Z,94.23
2022-12-24T01:54:16.514Z,94.00
2022-12-24T01:56:46.924Z,93.07
2022-12-24T01:59:16.936Z,92.00
2022-12-24T02:01:47.908Z,96.50
2022-12-24T02:04:19.346Z,93.97
2022-12-24T02:06:48.667Z,92.50
2022-12-24T02:09:17.108Z,90.90
2022-12-24T02:11:45.795Z,90.20
2022-12-24T02:14:15.115Z,91.60
2022-12-24T02:16:48.333Z,90.63
2022-12-24T02:19:35.419Z,91.60
2022-12-24T02:22:04.825Z,90.87
2022-12-24T02:24:48.055Z,93.50
2022-12-24T02:27:21.431Z,89.53
2022-12-24T02:30:04.293Z,90.07
2022-12-24T02:32:35.743Z,91.30
2022-12-24T02:35:06.383Z,92.97
2022-12-24T02:37:36.859Z,91.43
2022-12-24T02:40:13.794Z,91.03
2022-12-24T02:42:46.438Z,90.63
2022-12-24T02:45:17.539Z,91.73
2022-12-24T02:47:47.087Z,92.07
2022-12-24T02:50:16.414Z,90.47
2022-12-24T02:52:45.839Z,91.50
2022-12-24T02:55:16.247Z,88.27
2022-12-24T02:57:50.734Z,94.30
2022-12-24T03:00:21.355Z,91.90
2022-12-24T03:02:55.160Z,91.63
2022-12-24T03:05:30.034Z,94.40
2022-12-24T03:08:00.716Z,92.37
2022-12-24T03:10:33.512Z,97.13
2022-12-24T03:13:04.605Z,95.23
2022-12-24T03:15:34.710Z,93.57
2022-12-24T03:18:04.336Z,93.80
2022-12-24T03:20:35.204Z,95.67
2022-12-24T03:23:04.292Z,94.63
2022-12-24T03:25:34.230Z,95.10
2022-12-24T03:28:04.047Z,93.67
2022-12-24T03:30:34.524Z,93.20
2022-12-24T03:33:02.956Z,94.43
2022-12-24T03:35:31.396Z,97.23
2022-12-24T03:37:59.785Z,97.10
2022-12-24T03:40:28.171Z,97.10
2022-12-24T03:42:56.599Z,101.27
2022-12-24T03:45:25.047Z,99.23
2022-12-24T03:47:54.833Z,99.47
2022-12-24T03:50:23.517Z,98.87
2022-12-24T03:52:51.891Z,101.27
2022-12-24T03:55:20.265Z,102.97
2022-12-24T03:57:48.682Z,98.13
2022-12-24T04:00:17.852Z,99.60
2022-12-24T04:02:46.641Z,102.70
2022-12-24T04:05:17.525Z,110.40
2022-12-24T04:07:46.646Z,103.03
2022-12-24T04:10:15.337Z,105.17
2022-12-24T04:12:43.886Z,101.53
2022-12-24T04:15:12.568Z,101.30
2022-12-24T04:17:40.965Z,104.07
2022-12-24T04:20:10.010Z,105.00
2022-12-24T04:22:39.830Z,103.17
2022-12-24T04:25:08.907Z,104.83
2022-12-24T04:27:37.328Z,100.67
2022-12-24T04:30:06.129Z,99.47
2022-12-24T04:32:34.540Z,102.70
2022-12-24T04:35:03.117Z,105.47
2022-12-24T04:37:31.518Z,108.17
2022-12-24T04:40:01.276Z,108.73
2022-12-24T04:42:29.752Z,108.53
2022-12-24T04:44:58.519Z,104.47
2022-12-24T04:47:26.916Z,105.67
2022-12-24T04:49:55.579Z,103.60
2022-12-24T04:52:24.001Z,102.17
2022-12-24T04:54:52.381Z,101.47
2022-12-24T04:57:22.430Z,104.43
2022-12-24T04:59:50.819Z,102.93
2022-12-24T05:02:19.493Z,100.90
2022-12-24T05:04:48.010Z,103.87
2022-12-24T05:07:16.631Z,99.67
2022-12-24T05:09:45.003Z,100.27
2022-12-24T05:12:13.415Z,101.07
2022-12-24T05:14:43.210Z,100.13
2022-12-24T05:17:11.705Z,101.13
2022-12-24T05:19:40.182Z,96.93
2022-12-24T05:22:26.400Z,100.20
2022-12-24T05:25:20.708Z,98.60
2022-12-24T05:27:51.336Z,101.03
2022-12-24T05:30:21.440Z,103.70
2022-12-24T05:32:49.926Z,100.60
2022-12-24T05:35:18.323Z,102.27
2022-12-24T05:37:46.718Z,102.93
2022-12-24T05:40:15.228Z,104.10
2022-12-24T05:42:43.665Z,102.87
2022-12-24T05:45:12.193Z,105.80
2022-12-24T05:47:43.747Z,105.93
2022-12-24T05:50:12.643Z,109.13
2022-12-24T05:52:41.044Z,104.33
2022-12-24T05:55:10.174Z,104.80
2022-12-24T05:57:38.572Z,105.87
2022-12-24T06:00:08.063Z,101.63
2022-12-24T06:02:36.520Z,105.43
2022-12-24T06:05:06.649Z,103.13
2022-12-24T06:07:35.096Z,103.20
2022-12-24T06:10:03.678Z,102.57
2022-12-24T06:12:32.069Z,106.57
2022-12-24T06:15:00.530Z,102.87
2022-12-24T06:17:28.925Z,102.10
2022-12-24T06:19:57.305Z,101.53
2022-12-24T06:22:27.120Z,100.37
2022-12-24T06:24:55.565Z,101.17
2022-12-24T06:27:23.966Z,95.80
2022-12-24T06:29:52.365Z,97.23
2022-12-24T06:32:21.836Z,70.70
2022-12-24T06:34:50.228Z,75.10
2022-12-24T06:37:19.337Z,63.77
2022-12-24T06:39:49.747Z,76.77
2022-12-24T06:42:18.160Z,81.03
2022-12-24T06:44:46.570Z,69.07
2022-12-24T06:47:15.070Z,69.57
2022-12-24T06:49:43.438Z,58.87
2022-12-24T06:52:11.841Z,69.23
2022-12-24T06:54:40.247Z,61.80
2022-12-24T06:57:10.029Z,58.80
2022-12-24T06:59:38.466Z,55.77
2022-12-24T07:02:06.959Z,59.00
2022-12-24T07:04:35.571Z,54.93
2022-12-24T07:07:04.051Z,54.70
2022-12-24T07:09:33.451Z,67.53
2022-12-24T07:12:01.873Z,56.27
2022-12-24T07:14:31.640Z,53.37
2022-12-24T07:17:00.178Z,51.50
2022-12-24T07:19:28.646Z,51.63
2022-12-24T07:21:57.050Z,50.63
2022-12-24T07:24:25.517Z,47.53
2022-12-24T07:26:53.901Z,52.47
2022-12-24T07:29:22.514Z,52.20
2022-12-24T07:31:52.615Z,51.90
2022-12-24T07:34:21.034Z,50.57
2022-12-24T07:36:49.465Z,49.80
2022-12-24T07:39:17.850Z,48.53
2022-12-24T07:41:46.259Z,49.33
2022-12-24T07:44:15.083Z,48.63
2022-12-24T07:46:43.847Z,47.07
2022-12-24T07:49:13.672Z,45.30
2022-12-24T07:51:42.111Z,51.07
2022-12-24T07:54:10.545Z,64.30
2022-12-24T07:56:38.930Z,59.33
2022-12-24T07:59:07.312Z,52.40
2022-12-24T08:01:35.994Z,52.73
2022-12-24T08:04:04.562Z,50.87
2022-12-24T08:06:34.372Z,48.47
2022-12-24T08:09:02.831Z,53.43
2022-12-24T08:11:31.197Z,49.90
2022-12-24T08:13:59.725Z,49.77
2022-12-24T08:16:28.193Z,52.53
2022-12-24T08:18:56.618Z,47.67
2022-12-24T08:21:25.005Z,45.97
2022-12-24T08:23:54.760Z,47.47
2022-12-24T08:26:23.217Z,44.10
2022-12-24T08:28:51.646Z,60.23
2022-12-24T08:31:20.074Z,53.33
2022-12-24T08:33:48.499Z,48.27
2022-12-24T08:36:16.898Z,49.93
2022-12-24T08:38:45.366Z,47.30
2022-12-24T08:41:15.151Z,45.30
2022-12-24T08:43:43.624Z,45.37
2022-12-24T08:46:12.139Z,45.97
2022-12-24T08:48:40.550Z,50.43
2022-12-24T08:51:09.798Z,57.13
2022-12-24T08:53:38.219Z,50.03
2022-12-24T08:56:07.818Z,60.30
2022-12-24T08:58:37.903Z,57.80
2022-12-24T09:01:12.486Z,53.50
2022-12-24T09:03:41.102Z,53.97
2022-12-24T09:06:10.049Z,56.93
2022-12-24T09:08:38.667Z,58.17
2022-12-24T09:11:07.679Z,56.47
2022-12-24T09:13:37.561Z,55.70
2022-12-24T09:16:06.246Z,55.90
2022-12-24T09:18:35.137Z,59.30
2022-12-24T09:21:03.791Z,60.37
2022-12-24T09:23:33.748Z,62.87
2022-12-24T09:26:02.181Z,70.60
2022-12-24T09:28:30.593Z,66.77
2022-12-24T09:31:01.227Z,69.70
2022-12-24T09:33:30.233Z,72.50
2022-12-24T09:35:58.878Z,70.87
2022-12-24T09:38:27.528Z,73.03
2022-12-24T09:40:56.583Z,76.13
2022-12-24T09:43:26.049Z,76.80
2022-12-24T09:45:59.637Z,75.37
2022-12-24T09:48:31.202Z,76.73
2022-12-24T09:51:01.571Z,79.47
2022-12-24T09:53:31.964Z,81.40
2022-12-24T09:56:01.648Z,80.20
2022-12-24T09:58:33.970Z,82.70
2022-12-24T10:01:02.433Z,82.17
2022-12-24T10:03:32.774Z,83.20
2022-12-24T10:06:06.466Z,82.57
2022-12-24T10:08:40.327Z,85.83
2022-12-24T10:11:13.863Z,85.53
2022-12-24T10:13:48.900Z,91.80
2022-12-24T10:16:20.001Z,86.80
2022-12-24T10:18:52.726Z,96.27
2022-12-24T10:21:26.445Z,94.90
2022-12-24T10:23:57.020Z,91.07
2022-12-24T10:26:27.758Z,90.80
2022-12-24T10:28:59.707Z,97.80
2022-12-24T10:31:29.069Z,91.90
2022-12-24T10:34:01.756Z,95.10
2022-12-24T10:36:31.232Z,102.83
2022-12-24T10:38:59.779Z,100.03
2022-12-24T10:41:29.868Z,104.50
2022-12-24T10:43:58.900Z,96.70
2022-12-24T10:46:31.931Z,96.27
2022-12-24T10:49:03.283Z,99.93
2022-12-24T10:51:35.582Z,103.13
2022-12-24T10:54:07.840Z,108.57
2022-12-24T10:56:41.791Z,110.87
2022-12-24T10:59:24.277Z,108.97
2022-12-24T11:01:52.808Z,109.17
2022-12-24T11:04:23.908Z,110.13
2022-12-24T11:06:56.287Z,104.33
2022-12-24T11:09:26.095Z,107.67
2022-12-24T11:11:54.723Z,104.40
2022-12-24T11:14:23.379Z,111.63
2022-12-24T11:16:53.559Z,105.97
2022-12-24T11:19:26.158Z,115.30
2022-12-24T11:22:00.699Z,112.70
2022-12-24T11:24:30.273Z,111.50
2022-12-24T11:27:21.993Z,113.63
2022-12-24T11:29:50.471Z,116.93
2022-12-24T11:32:19.512Z,101.43
2022-12-24T11:34:49.679Z,113.77
2022-12-24T11:37:18.981Z,109.77
2022-12-24T11:39:49.370Z,112.07
2022-12-24T11:42:33.659Z,110.63
2022-12-24T11:45:03.064Z,119.33
2022-12-24T11:47:34.488Z,123.93
2022-12-24T11:50:18.931Z,119.77
2022-12-24T11:52:49.209Z,122.03
2022-12-24T11:55:21.388Z,127.00
2022-12-24T11:57:53.782Z,126.93
2022-12-24T12:00:22.318Z,129.60
2022-12-24T12:02:53.130Z,128.37
2022-12-24T12:05:23.139Z,130.23
2022-12-24T12:07:55.648Z,129.80
2022-12-24T12:10:25.269Z,130.80
2022-12-24T12:12:58.663Z,132.23
2022-12-24T12:15:28.277Z,132.37
2022-12-24T12:17:58.701Z,131.40
2022-12-24T12:20:28.563Z,135.50
2022-12-24T12:23:00.936Z,134.60
2022-12-24T12:25:32.781Z,133.93
2022-12-24T12:28:02.497Z,136.03
2022-12-24T12:30:31.464Z,135.50
2022-12-24T12:33:02.120Z,135.37
2022-12-24T12:35:32.217Z,128.77
2022-12-24T12:38:03.437Z,111.50
2022-12-24T12:40:36.063Z,128.93
2022-12-24T12:43:09.610Z,130.87
2022-12-24T12:45:46.158Z,127.10
2022-12-24T12:48:20.999Z,125.53
2022-12-24T12:50:52.446Z,128.53
2022-12-24T12:53:33.429Z,136.43
2022-12-24T12:56:04.728Z,136.37
2022-12-24T12:58:35.800Z,116.63
2022-12-24T13:01:06.359Z,119.83
2022-12-24T13:03:46.264Z,128.67
2022-12-24T13:06:29.694Z,116.83
2022-12-24T13:09:13.804Z,123.10
2022-12-24T13:11:49.455Z,135.03
2022-12-24T13:14:33.891Z,137.77
2022-12-24T13:17:19.890Z,143.67
2022-12-24T13:20:09.426Z,139.73
2022-12-24T13:22:38.066Z,144.87
2022-12-24T13:25:08.353Z,143.67
2022-12-24T13:27:36.998Z,146.93
2022-12-24T13:30:12.920Z,143.27
2022-12-24T13:33:02.352Z,144.33
2022-12-24T13:35:48.573Z,143.97
2022-12-24T13:38:33.751Z,143.33
2022-12-24T13:41:20.620Z,140.60
2022-12-24T13:46:56.636Z,146.07
2022-12-24T13:49:28.949Z,150.00
2022-12-24T13:52:24.286Z,152.63
2022-12-24T13:55:03.383Z,148.60
2022-12-24T13:57:33.908Z,149.33
2022-12-24T14:00:04.048Z,151.23
2022-12-24T14:02:36.332Z,154.43
2022-12-24T14:05:08.594Z,154.37
2022-12-24T14:07:38.359Z,153.53
2022-12-24T14:10:07.441Z,152.70
2022-12-24T14:12:49.810Z,157.77
2022-12-24T14:15:36.871Z,158.67
2022-12-24T14:18:06.808Z,162.43
2022-12-24T14:20:35.296Z,158.93
2022-12-24T14:23:05.046Z,166.33
2022-12-24T14:25:33.495Z,162.33
2022-12-24T14:28:05.231Z,162.07
2022-12-24T14:30:33.882Z,167.47
2022-12-24T14:33:02.256Z,163.50
2022-12-24T14:35:32.653Z,163.87
2022-12-24T14:38:03.428Z,167.33
2022-12-24T14:40:33.057Z,173.10
2022-12-24T14:43:05.008Z,170.97
2022-12-24T14:45:36.297Z,165.93
2022-12-24T14:48:10.616Z,167.53
2022-12-24T14:50:47.226Z,158.33
2022-12-24T14:53:21.157Z,165.23
2022-12-24T14:55:50.618Z,177.17
2022-12-24T14:58:24.786Z,173.63
2022-12-24T15:00:54.371Z,172.20
2022-12-24T15:03:23.960Z,178.90
2022-12-24T15:05:55.094Z,183.97
2022-12-24T15:08:27.844Z,180.73
2022-12-24T15:10:57.198Z,181.53
2022-12-24T15:13:29.584Z,177.03
2022-12-24T15:15:59.994Z,176.73
2022-12-24T15:18:29.923Z,172.80
2022-12-24T15:21:04.276Z,175.73
2022-12-24T15:23:34.293Z,176.17
2022-12-24T15:26:09.876Z,179.33
2022-12-24T15:28:39.259Z,179.57
2022-12-24T15:31:10.995Z,177.83
2022-12-24T15:33:39.950Z,177.97
2022-12-24T15:36:10.606Z,173.17
2022-12-24T15:38:39.964Z,172.83
2022-12-24T15:41:10.408Z,171.50
2022-12-24T15:43:41.455Z,167.00
2022-12-24T15:46:10.147Z,169.87
2022-12-24T15:48:39.050Z,167.10
2022-12-24T15:51:07.979Z,169.07
2022-12-24T15:53:40.422Z,168.17
2022-12-24T15:56:09.833Z,169.27
2022-12-24T15:58:39.499Z,165.77
2022-12-24T16:01:28.320Z,167.70
2022-12-24T16:03:58.319Z,163.07
2022-12-24T16:06:27.752Z,167.00
2022-12-24T16:08:58.790Z,162.27
2022-12-24T16:11:30.084Z,155.10
2022-12-24T16:14:03.874Z,144.83
2022-12-24T16:16:37.752Z,130.13
2022-12-24T16:19:07.231Z,122.20
2022-12-24T16:21:36.768Z,112.20
2022-12-24T16:24:08.565Z,105.27
2022-12-24T16:26:38.191Z,101.43
2022-12-24T16:29:06.600Z,98.97
2022-12-24T16:31:36.305Z,91.87
2022-12-24T16:34:05.197Z,90.33
2022-12-24T16:36:34.002Z,88.80
2022-12-24T16:39:20.599Z,85.47
2022-12-24T16:42:08.051Z,82.93
2022-12-24T16:44:36.565Z,85.97
2022-12-24T16:47:06.499Z,82.40
2022-12-24T16:49:38.200Z,81.40
2022-12-24T16:52:06.809Z,80.77
2022-12-24T16:54:35.196Z,81.07
2022-12-24T16:57:05.106Z,83.97
2022-12-24T16:59:33.778Z,85.17
2022-12-24T17:02:02.274Z,83.17
2022-12-24T17:04:32.920Z,82.57
2022-12-24T17:07:01.552Z,82.13
2022-12-24T17:09:29.931Z,79.20
2022-12-24T17:11:58.689Z,79.70
2022-12-24T17:14:28.486Z,80.77
2022-12-24T17:16:56.963Z,79.93
2022-12-24T17:19:25.404Z,78.43
2022-12-24T17:21:53.815Z,75.63
2022-12-24T17:24:22.339Z,75.03
2022-12-24T17:26:50.777Z,77.63
2022-12-24T17:29:19.175Z,75.37
2022-12-24T17:31:48.897Z,74.20
2022-12-24T17:34:17.588Z,77.33
2022-12-24T17:36:46.013Z,79.70
2022-12-24T17:39:14.401Z,78.23
2022-12-24T17:41:42.881Z,79.27
2022-12-24T17:44:13.465Z,80.43
2022-12-24T17:46:42.180Z,79.00
2022-12-24T17:49:12.103Z,79.27
2022-12-24T17:51:45.278Z,80.77
2022-12-24T17:54:14.785Z,80.80
2022-12-24T17:56:43.195Z,77.50
2022-12-24T17:59:11.557Z,80.13
2022-12-24T18:01:40.030Z,79.33
2022-12-24T18:04:08.843Z,83.23
2022-12-24T18:06:44.153Z,83.13
2022-12-24T18:09:15.837Z,85.47
2022-12-24T18:11:44.248Z,83.53
2022-12-24T18:14:14.131Z,84.70
2022-12-24T18:16:43.159Z,86.53
2022-12-24T18:19:13.357Z,85.10
2022-12-24T18:21:43.247Z,85.70
2022-12-24T18:24:12.710Z,81.47
2022-12-24T18:26:41.328Z,88.57
2022-12-24T18:29:09.695Z,82.33
2022-12-24T18:31:38.514Z,82.90
2022-12-24T18:34:08.084Z,81.83
2022-12-24T18:36:36.566Z,82.17
2022-12-24T18:39:06.812Z,85.63
2022-12-24T18:41:35.805Z,85.57
2022-12-24T18:44:04.352Z,84.00
2022-12-24T18:46:34.174Z,83.30
2022-12-24T18:49:03.412Z,85.67
2022-12-24T18:51:32.947Z,88.57
2022-12-24T18:54:02.702Z,88.80
2022-12-24T18:56:33.072Z,85.57
2022-12-24T18:59:02.030Z,84.53
2022-12-24T19:01:31.110Z,85.43
2022-12-24T19:03:59.967Z,85.97
2022-12-24T19:06:28.368Z,84.80
2022-12-24T19:08:58.986Z,83.17
2022-12-24T19:11:29.351Z,83.63
2022-12-24T19:13:59.216Z,83.53
2022-12-24T19:16:27.855Z,82.47
2022-12-24T19:18:56.356Z,83.07
2022-12-24T19:21:24.886Z,82.77
2022-12-24T19:23:53.314Z,81.53
2022-12-24T19:26:22.315Z,81.27
2022-12-24T19:28:51.117Z,82.97
2022-12-24T19:31:23.078Z,79.60
2022-12-24T19:33:52.941Z,82.77
2022-12-24T19:36:22.182Z,83.80
2022-12-24T19:38:50.689Z,81.30
2022-12-24T19:41:20.348Z,80.03
2022-12-24T19:43:50.167Z,80.23
2022-12-24T19:46:19.728Z,80.33
2022-12-24T19:48:51.639Z,79.50
2022-12-24T19:51:20.200Z,80.37
2022-12-24T19:53:48.699Z,81.17
2022-12-24T19:56:17.193Z,85.47
2022-12-24T19:58:45.894Z,85.13
2022-12-24T20:01:16.166Z,81.97
2022-12-24T20:03:44.871Z,84.53
2022-12-24T20:06:15.231Z,85.27
2022-12-24T20:08:43.844Z,83.30
2022-12-24T20:11:13.151Z,81.30
2022-12-24T20:13:42.161Z,79.77
2022-12-24T20:16:12.093Z,80.00
2022-12-24T20:18:40.763Z,80.70
2022-12-24T20:21:10.357Z,81.27
2022-12-24T20:23:40.595Z,82.03
2022-12-24T20:26:10.371Z,77.10
2022-12-24T20:28:39.050Z,77.50
2022-12-24T20:31:11.462Z,78.77
2022-12-24T20:33:40.121Z,76.90
2022-12-24T20:36:08.640Z,78.47
2022-12-24T20:38:37.634Z,76.97
2022-12-24T20:41:09.769Z,77.20
2022-12-24T20:43:45.022Z,81.43
2022-12-24T20:46:16.272Z,80.00
2022-12-24T20:48:44.727Z,77.87
2022-12-24T20:51:20.998Z,81.30
2022-12-24T20:53:52.457Z,77.93
2022-12-24T20:56:22.380Z,78.37
2022-12-24T20:58:50.807Z,79.83
2022-12-24T21:01:20.191Z,79.07
2022-12-24T21:03:48.827Z,80.00
2022-12-24T21:06:18.028Z,82.33
2022-12-24T21:08:46.721Z,82.10
2022-12-24T21:11:32.851Z,80.17
2022-12-24T21:14:03.047Z,79.07
2022-12-24T21:16:31.647Z,79.07
2022-12-24T21:19:00.258Z,85.50
2022-12-24T21:21:28.704Z,85.30
2022-12-24T21:23:57.311Z,84.53
2022-12-24T21:26:25.712Z,80.00
2022-12-24T21:28:54.138Z,79.20
2022-12-24T21:31:23.962Z,81.20
2022-12-24T21:33:52.455Z,82.63
2022-12-24T21:36:21.115Z,81.20
2022-12-24T21:38:49.531Z,79.20
2022-12-24T21:41:18.870Z,81.83
2022-12-24T21:43:48.145Z,80.77
2022-12-24T21:46:18.618Z,83.40
2022-12-24T21:49:06.485Z,79.37
2022-12-24T21:51:34.890Z,78.93
2022-12-24T21:54:21.050Z,81.27
2022-12-24T21:57:07.124Z,80.33
2022-12-24T21:59:35.560Z,81.37
2022-12-24T22:02:04.196Z,82.70
2022-12-24T22:04:34.522Z,81.57
2022-12-24T22:07:20.860Z,80.80
2022-12-24T22:10:07.210Z,80.90
2022-12-24T22:12:35.869Z,81.17
2022-12-24T22:15:06.347Z,80.30
2022-12-24T22:17:34.815Z,81.57
2022-12-24T22:20:04.758Z,82.27
2022-12-24T22:22:33.129Z,78.70
2022-12-24T22:25:01.526Z,80.43
2022-12-24T22:27:29.967Z,79.67
2022-12-24T22:29:58.777Z,78.10
2022-12-24T22:32:27.177Z,77.03
2022-12-24T22:34:55.798Z,77.67
2022-12-24T22:37:25.555Z,77.00
2022-12-24T22:39:53.989Z,77.57
2022-12-24T22:42:22.728Z,76.93
2022-12-24T22:44:51.284Z,76.67
2022-12-24T22:47:19.724Z,74.77
2022-12-24T22:49:49.983Z,76.33
2022-12-24T22:52:18.388Z,75.70
2022-12-24T22:54:48.158Z,77.83
2022-12-24T22:57:16.562Z,78.63
2022-12-24T22:59:45.120Z,78.97
2022-12-24T23:02:13.782Z,79.43
2022-12-24T23:04:42.539Z,76.50
2022-12-24T23:07:12.222Z,79.60
2022-12-24T23:09:41.064Z,77.37
2022-12-24T23:12:10.915Z,77.70
2022-12-24T23:14:56.560Z,77.83
2022-12-24T23:17:24.961Z,77.77
2022-12-24T23:19:53.383Z,77.27
2022-12-24T23:22:21.766Z,76.37
2022-12-24T23:24:50.206Z,76.30
2022-12-24T23:27:19.984Z,76.70
2022-12-24T23:29:48.390Z,81.93
2022-12-24T23:32:16.840Z,81.20
2022-12-24T23:34:45.362Z,80.90
2022-12-24T23:37:13.749Z,79.93
2022-12-24T23:39:42.212Z,84.33
2022-12-24T23:42:10.652Z,85.03
2022-12-24T23:44:40.804Z,85.73
2022-12-24T23:47:09.238Z,86.37
2022-12-24T23:49:37.697Z,82.80
2022-12-24T23:52:07.778Z,82.83
2022-12-24T23:54:36.467Z,81.87
2022-12-24T23:57:04.841Z,83.33
2022-12-24T23:59:34.306Z,83.37
